Mc Grann, Pennsylvania
Current Conditions -  °F | °C
As of 11:35 AM on Saturday 22 Nov 2014 (Local Time) from KBTP Reporting Station
Overcast Overcast  
Wind Chill: 23°   Ceiling: 1300
Heat Index: 30°   Visibility: 9mi
Dew Point: 23°   Wind: 7mph
Humidity: 75%   Direction: 190°S
Pressure: 30.25"   Gusts: NA
Location:  40.7796°N, 79.5234°W
Report Text: KBTP 221635Z AUTO 19006KT 9SM OVC013 M01/M05 A3025 RMK AO1
Loading
Personal Weather Stations






























Interactive Weather Map New forecast layout! Learn more

10-Day Weather Forecast

Advertisements
Track Severe Weather on mobile